sensor_id;sensor_type;location;lat;lon;timestamp;temperature;humidity
59572;DHT22;59406;45.602;11.904;2023-04-15T00:01:29;19.60;89.80
59572;DHT22;59406;45.602;11.904;2023-04-15T00:03:58;19.70;86.80
59572;DHT22;59406;45.602;11.904;2023-04-15T00:06:24;19.70;85.50
59572;DHT22;59406;45.602;11.904;2023-04-15T00:08:50;19.60;83.50
59572;DHT22;59406;45.602;11.904;2023-04-15T00:11:17;19.60;82.20
59572;DHT22;59406;45.602;11.904;2023-04-15T00:13:43;19.60;81.10
59572;DHT22;59406;45.602;11.904;2023-04-15T00:16:09;19.50;81.70
59572;DHT22;59406;45.602;11.904;2023-04-15T00:18:36;19.60;81.60
59572;DHT22;59406;45.602;11.904;2023-04-15T00:21:02;19.60;83.40
59572;DHT22;59406;45.602;11.904;2023-04-15T00:23:29;19.60;86.10
59572;DHT22;59406;45.602;11.904;2023-04-15T00:25:56;19.60;86.40
59572;DHT22;59406;45.602;11.904;2023-04-15T00:28:22;19.60;86.30
59572;DHT22;59406;45.602;11.904;2023-04-15T00:30:48;19.60;83.40
59572;DHT22;59406;45.602;11.904;2023-04-15T00:33:14;19.60;82.80
59572;DHT22;59406;45.602;11.904;2023-04-15T00:35:41;19.60;83.20
59572;DHT22;59406;45.602;11.904;2023-04-15T00:38:07;19.60;85.40
59572;DHT22;59406;45.602;11.904;2023-04-15T00:40:33;19.50;87.40
59572;DHT22;59406;45.602;11.904;2023-04-15T00:43:00;19.60;87.90
59572;DHT22;59406;45.602;11.904;2023-04-15T00:45:26;19.60;86.60
59572;DHT22;59406;45.602;11.904;2023-04-15T00:47:53;19.60;84.30
59572;DHT22;59406;45.602;11.904;2023-04-15T00:50:20;19.60;83.20
59572;DHT22;59406;45.602;11.904;2023-04-15T00:52:46;19.60;83.50
59572;DHT22;59406;45.602;11.904;2023-04-15T00:55:12;19.60;83.60
59572;DHT22;59406;45.602;11.904;2023-04-15T00:57:38;19.50;84.50
59572;DHT22;59406;45.602;11.904;2023-04-15T01:00:05;19.50;86.50
59572;DHT22;59406;45.602;11.904;2023-04-15T01:02:36;19.50;87.90
59572;DHT22;59406;45.602;11.904;2023-04-15T01:05:03;19.50;88.80
59572;DHT22;59406;45.602;11.904;2023-04-15T01:07:29;19.70;89.50
59572;DHT22;59406;45.602;11.904;2023-04-15T01:09:56;19.50;89.60
59572;DHT22;59406;45.602;11.904;2023-04-15T01:12:24;19.60;89.40
59572;DHT22;59406;45.602;11.904;2023-04-15T01:14:51;19.60;88.70
59572;DHT22;59406;45.602;11.904;2023-04-15T01:17:17;19.60;89.60
59572;DHT22;59406;45.602;11.904;2023-04-15T01:19:44;19.60;89.20
59572;DHT22;59406;45.602;11.904;2023-04-15T01:22:10;19.60;90.10
59572;DHT22;59406;45.602;11.904;2023-04-15T01:24:36;19.50;90.70
59572;DHT22;59406;45.602;11.904;2023-04-15T01:27:03;19.50;90.70
59572;DHT22;59406;45.602;11.904;2023-04-15T01:29:31;19.50;90.90
59572;DHT22;59406;45.602;11.904;2023-04-15T01:31:57;19.50;91.30
59572;DHT22;59406;45.602;11.904;2023-04-15T01:34:23;19.50;91.00
59572;DHT22;59406;45.602;11.904;2023-04-15T01:36:49;19.60;90.40
59572;DHT22;59406;45.602;11.904;2023-04-15T01:39:16;19.50;90.70
59572;DHT22;59406;45.602;11.904;2023-04-15T01:41:42;19.50;91.00
59572;DHT22;59406;45.602;11.904;2023-04-15T01:44:08;19.50;91.30
59572;DHT22;59406;45.602;11.904;2023-04-15T01:46:34;19.60;90.90
59572;DHT22;59406;45.602;11.904;2023-04-15T01:49:01;19.50;90.40
59572;DHT22;59406;45.602;11.904;2023-04-15T01:51:26;19.50;90.70
59572;DHT22;59406;45.602;11.904;2023-04-15T01:53:53;19.60;90.00
59572;DHT22;59406;45.602;11.904;2023-04-15T01:56:21;19.50;89.70
59572;DHT22;59406;45.602;11.904;2023-04-15T01:58:49;19.50;90.10
59572;DHT22;59406;45.602;11.904;2023-04-15T02:01:15;19.50;87.80
59572;DHT22;59406;45.602;11.904;2023-04-15T02:03:41;19.50;87.40
59572;DHT22;59406;45.602;11.904;2023-04-15T02:06:07;19.40;88.80
59572;DHT22;59406;45.602;11.904;2023-04-15T02:08:33;19.50;90.00
59572;DHT22;59406;45.602;11.904;2023-04-15T02:10:59;19.50;88.90
59572;DHT22;59406;45.602;11.904;2023-04-15T02:13:25;19.40;88.10
59572;DHT22;59406;45.602;11.904;2023-04-15T02:15:53;19.40;87.50
59572;DHT22;59406;45.602;11.904;2023-04-15T02:18:19;19.50;86.50
59572;DHT22;59406;45.602;11.904;2023-04-15T02:20:46;19.50;85.50
59572;DHT22;59406;45.602;11.904;2023-04-15T02:23:12;19.40;84.90
59572;DHT22;59406;45.602;11.904;2023-04-15T02:25:38;19.50;85.50
59572;DHT22;59406;45.602;11.904;2023-04-15T02:28:04;19.40;85.50
59572;DHT22;59406;45.602;11.904;2023-04-15T02:30:32;19.50;84.30
59572;DHT22;59406;45.602;11.904;2023-04-15T02:32:59;19.40;83.90
59572;DHT22;59406;45.602;11.904;2023-04-15T02:35:26;19.40;83.30
59572;DHT22;59406;45.602;11.904;2023-04-15T02:37:52;19.40;83.80
59572;DHT22;59406;45.602;11.904;2023-04-15T02:40:18;19.40;83.60
59572;DHT22;59406;45.602;11.904;2023-04-15T02:42:44;19.40;83.70
59572;DHT22;59406;45.602;11.904;2023-04-15T02:45:10;19.30;84.00
59572;DHT22;59406;45.602;11.904;2023-04-15T02:47:37;19.30;83.60
59572;DHT22;59406;45.602;11.904;2023-04-15T02:50:11;19.30;83.30
59572;DHT22;59406;45.602;11.904;2023-04-15T02:52:41;19.40;84.10
59572;DHT22;59406;45.602;11.904;2023-04-15T02:55:08;19.40;83.50
59572;DHT22;59406;45.602;11.904;2023-04-15T02:57:34;19.30;83.50
59572;DHT22;59406;45.602;11.904;2023-04-15T03:00:06;19.30;84.10
59572;DHT22;59406;45.602;11.904;2023-04-15T03:02:35;19.30;84.00
59572;DHT22;59406;45.602;11.904;2023-04-15T03:05:01;19.40;83.90
59572;DHT22;59406;45.602;11.904;2023-04-15T03:07:27;19.20;83.90
59572;DHT22;59406;45.602;11.904;2023-04-15T03:09:53;19.40;84.10
59572;DHT22;59406;45.602;11.904;2023-04-15T03:12:19;19.40;84.50
59572;DHT22;59406;45.602;11.904;2023-04-15T03:14:46;19.30;86.60
59572;DHT22;59406;45.602;11.904;2023-04-15T03:17:12;19.30;87.20
59572;DHT22;59406;45.602;11.904;2023-04-15T03:19:37;19.30;87.40
59572;DHT22;59406;45.602;11.904;2023-04-15T03:22:03;19.30;86.60
59572;DHT22;59406;45.602;11.904;2023-04-15T03:24:30;19.30;87.30
59572;DHT22;59406;45.602;11.904;2023-04-15T03:26:56;19.30;88.20
59572;DHT22;59406;45.602;11.904;2023-04-15T03:29:23;19.30;87.80
59572;DHT22;59406;45.602;11.904;2023-04-15T03:31:48;19.30;87.50
59572;DHT22;59406;45.602;11.904;2023-04-15T03:34:15;19.30;88.50
59572;DHT22;59406;45.602;11.904;2023-04-15T03:36:41;19.30;89.00
59572;DHT22;59406;45.602;11.904;2023-04-15T03:39:07;19.30;87.70
59572;DHT22;59406;45.602;11.904;2023-04-15T03:43:58;19.30;87.10
59572;DHT22;59406;45.602;11.904;2023-04-15T03:46:24;19.30;87.10
59572;DHT22;59406;45.602;11.904;2023-04-15T03:48:50;19.20;86.60
59572;DHT22;59406;45.602;11.904;2023-04-15T03:51:16;19.30;85.50
59572;DHT22;59406;45.602;11.904;2023-04-15T03:53:42;19.30;86.80
59572;DHT22;59406;45.602;11.904;2023-04-15T03:56:08;19.30;87.00
59572;DHT22;59406;45.602;11.904;2023-04-15T03:58:34;19.30;88.20
59572;DHT22;59406;45.602;11.904;2023-04-15T04:01:00;19.30;88.90
59572;DHT22;59406;45.602;11.904;2023-04-15T04:03:29;19.20;89.20
59572;DHT22;59406;45.602;11.904;2023-04-15T04:05:55;19.30;90.70
59572;DHT22;59406;45.602;11.904;2023-04-15T04:08:21;19.20;89.60
59572;DHT22;59406;45.602;11.904;2023-04-15T04:10:47;19.20;89.80
59572;DHT22;59406;45.602;11.904;2023-04-15T04:13:13;19.30;90.50
59572;DHT22;59406;45.602;11.904;2023-04-15T04:15:39;19.20;91.00
59572;DHT22;59406;45.602;11.904;2023-04-15T04:18:05;19.30;91.20
59572;DHT22;59406;45.602;11.904;2023-04-15T04:20:31;19.30;91.60
59572;DHT22;59406;45.602;11.904;2023-04-15T04:22:57;19.20;91.70
59572;DHT22;59406;45.602;11.904;2023-04-15T04:25:23;19.20;88.40
59572;DHT22;59406;45.602;11.904;2023-04-15T04:27:49;19.20;87.90
59572;DHT22;59406;45.602;11.904;2023-04-15T04:30:15;19.20;87.10
59572;DHT22;59406;45.602;11.904;2023-04-15T04:32:41;19.20;87.80
59572;DHT22;59406;45.602;11.904;2023-04-15T04:35:07;19.20;85.90
59572;DHT22;59406;45.602;11.904;2023-04-15T04:37:33;19.20;85.90
59572;DHT22;59406;45.602;11.904;2023-04-15T04:39:59;19.20;87.10
59572;DHT22;59406;45.602;11.904;2023-04-15T04:42:25;19.20;86.60
59572;DHT22;59406;45.602;11.904;2023-04-15T04:44:52;19.20;86.50
59572;DHT22;59406;45.602;11.904;2023-04-15T04:47:18;19.20;86.00
59572;DHT22;59406;45.602;11.904;2023-04-15T04:49:44;19.20;87.80
59572;DHT22;59406;45.602;11.904;2023-04-15T04:52:10;19.20;89.60
59572;DHT22;59406;45.602;11.904;2023-04-15T04:54:36;19.20;90.40
59572;DHT22;59406;45.602;11.904;2023-04-15T04:57:02;19.10;89.50
59572;DHT22;59406;45.602;11.904;2023-04-15T04:59:28;19.20;90.90
59572;DHT22;59406;45.602;11.904;2023-04-15T05:01:54;19.20;91.50
59572;DHT22;59406;45.602;11.904;2023-04-15T05:04:20;19.20;92.10
59572;DHT22;59406;45.602;11.904;2023-04-15T05:06:46;19.20;92.60
59572;DHT22;59406;45.602;11.904;2023-04-15T05:09:12;19.20;92.90
59572;DHT22;59406;45.602;11.904;2023-04-15T05:11:38;19.20;93.10
59572;DHT22;59406;45.602;11.904;2023-04-15T05:14:03;19.20;93.20
59572;DHT22;59406;45.602;11.904;2023-04-15T05:16:29;19.20;93.20
59572;DHT22;59406;45.602;11.904;2023-04-15T05:18:55;19.30;93.20
59572;DHT22;59406;45.602;11.904;2023-04-15T05:21:21;19.30;93.40
59572;DHT22;59406;45.602;11.904;2023-04-15T05:23:47;19.20;93.20
59572;DHT22;59406;45.602;11.904;2023-04-15T05:26:13;19.20;94.10
59572;DHT22;59406;45.602;11.904;2023-04-15T05:28:39;19.30;95.30
59572;DHT22;59406;45.602;11.904;2023-04-15T05:31:05;19.30;97.00
59572;DHT22;59406;45.602;11.904;2023-04-15T05:33:32;19.20;97.80
59572;DHT22;59406;45.602;11.904;2023-04-15T05:35:57;19.30;97.90
59572;DHT22;59406;45.602;11.904;2023-04-15T05:38:23;19.30;97.90
59572;DHT22;59406;45.602;11.904;2023-04-15T05:40:49;19.30;98.00
59572;DHT22;59406;45.602;11.904;2023-04-15T05:43:15;19.40;98.00
59572;DHT22;59406;45.602;11.904;2023-04-15T05:45:41;19.30;98.00
59572;DHT22;59406;45.602;11.904;2023-04-15T05:48:07;19.30;98.10
59572;DHT22;59406;45.602;11.904;2023-04-15T05:50:33;19.40;98.00
59572;DHT22;59406;45.602;11.904;2023-04-15T05:53:00;19.30;97.80
59572;DHT22;59406;45.602;11.904;2023-04-15T05:55:26;19.50;97.60
59572;DHT22;59406;45.602;11.904;2023-04-15T05:57:52;19.40;97.30
59572;DHT22;59406;45.602;11.904;2023-04-15T06:00:18;19.40;97.10
59572;DHT22;59406;45.602;11.904;2023-04-15T06:02:44;19.40;96.90
59572;DHT22;59406;45.602;11.904;2023-04-15T06:05:10;19.40;96.80
59572;DHT22;59406;45.602;11.904;2023-04-15T06:07:37;19.30;96.50
59572;DHT22;59406;45.602;11.904;2023-04-15T06:10:04;19.40;96.50
59572;DHT22;59406;45.602;11.904;2023-04-15T06:12:30;19.40;96.10
59572;DHT22;59406;45.602;11.904;2023-04-15T06:14:56;19.40;95.60
59572;DHT22;59406;45.602;11.904;2023-04-15T06:17:22;19.50;95.30
59572;DHT22;59406;45.602;11.904;2023-04-15T06:19:48;19.40;95.20
59572;DHT22;59406;45.602;11.904;2023-04-15T06:22:16;19.50;94.80
59572;DHT22;59406;45.602;11.904;2023-04-15T06:24:42;19.40;94.70
59572;DHT22;59406;45.602;11.904;2023-04-15T06:27:08;19.50;94.60
59572;DHT22;59406;45.602;11.904;2023-04-15T06:29:34;19.50;94.10
59572;DHT22;59406;45.602;11.904;2023-04-15T06:32:00;19.60;93.70
59572;DHT22;59406;45.602;11.904;2023-04-15T06:34:26;19.50;93.20
59572;DHT22;59406;45.602;11.904;2023-04-15T06:36:52;19.60;92.80
59572;DHT22;59406;45.602;11.904;2023-04-15T06:39:19;19.60;92.40
59572;DHT22;59406;45.602;11.904;2023-04-15T06:41:45;19.70;92.00
59572;DHT22;59406;45.602;11.904;2023-04-15T06:44:11;19.70;91.60
59572;DHT22;59406;45.602;11.904;2023-04-15T06:46:37;19.70;91.30
59572;DHT22;59406;45.602;11.904;2023-04-15T06:49:03;19.70;91.30
59572;DHT22;59406;45.602;11.904;2023-04-15T06:51:30;19.70;90.90
59572;DHT22;59406;45.602;11.904;2023-04-15T06:53:56;19.70;90.70
59572;DHT22;59406;45.602;11.904;2023-04-15T06:56:22;19.70;90.60
59572;DHT22;59406;45.602;11.904;2023-04-15T06:58:48;19.70;90.50
59572;DHT22;59406;45.602;11.904;2023-04-15T07:01:14;19.70;90.30
59572;DHT22;59406;45.602;11.904;2023-04-15T07:03:40;19.80;90.00
59572;DHT22;59406;45.602;11.904;2023-04-15T07:06:06;19.80;89.70
59572;DHT22;59406;45.602;11.904;2023-04-15T07:08:34;19.80;89.50
59572;DHT22;59406;45.602;11.904;2023-04-15T07:11:00;19.80;89.00
59572;DHT22;59406;45.602;11.904;2023-04-15T07:13:26;19.80;88.90
59572;DHT22;59406;45.602;11.904;2023-04-15T07:15:53;19.80;89.00
59572;DHT22;59406;45.602;11.904;2023-04-15T07:18:18;19.90;88.90
59572;DHT22;59406;45.602;11.904;2023-04-15T07:20:45;19.80;88.50
59572;DHT22;59406;45.602;11.904;2023-04-15T07:23:12;19.80;88.60
59572;DHT22;59406;45.602;11.904;2023-04-15T07:25:38;19.80;88.80
59572;DHT22;59406;45.602;11.904;2023-04-15T07:28:04;19.80;88.60
59572;DHT22;59406;45.602;11.904;2023-04-15T07:30:30;19.80;86.80
59572;DHT22;59406;45.602;11.904;2023-04-15T07:32:57;19.80;87.10
59572;DHT22;59406;45.602;11.904;2023-04-15T07:35:23;19.80;87.60
59572;DHT22;59406;45.602;11.904;2023-04-15T07:37:50;19.90;85.50
59572;DHT22;59406;45.602;11.904;2023-04-15T07:40:16;19.80;86.90
59572;DHT22;59406;45.602;11.904;2023-04-15T07:42:43;19.80;87.60
59572;DHT22;59406;45.602;11.904;2023-04-15T07:45:09;19.80;85.20
59572;DHT22;59406;45.602;11.904;2023-04-15T07:47:35;19.80;83.10
59572;DHT22;59406;45.602;11.904;2023-04-15T07:50:00;19.80;85.60
59572;DHT22;59406;45.602;11.904;2023-04-15T07:52:27;19.80;86.10
59572;DHT22;59406;45.602;11.904;2023-04-15T07:54:52;19.90;86.30
59572;DHT22;59406;45.602;11.904;2023-04-15T07:57:18;19.90;86.50
59572;DHT22;59406;45.602;11.904;2023-04-15T07:59:44;19.90;84.80
59572;DHT22;59406;45.602;11.904;2023-04-15T08:02:16;19.90;84.40
59572;DHT22;59406;45.602;11.904;2023-04-15T08:04:42;19.80;82.00
59572;DHT22;59406;45.602;11.904;2023-04-15T08:07:08;20.00;82.90
59572;DHT22;59406;45.602;11.904;2023-04-15T08:09:34;19.90;83.10
59572;DHT22;59406;45.602;11.904;2023-04-15T08:12:00;19.90;83.90
59572;DHT22;59406;45.602;11.904;2023-04-15T08:14:26;19.90;83.40
59572;DHT22;59406;45.602;11.904;2023-04-15T08:16:52;19.90;82.60
59572;DHT22;59406;45.602;11.904;2023-04-15T08:19:18;19.90;84.20
59572;DHT22;59406;45.602;11.904;2023-04-15T08:21:43;19.90;84.40
59572;DHT22;59406;45.602;11.904;2023-04-15T08:24:10;19.90;84.70
59572;DHT22;59406;45.602;11.904;2023-04-15T08:26:36;19.90;85.30
59572;DHT22;59406;45.602;11.904;2023-04-15T08:29:02;19.90;85.30
59572;DHT22;59406;45.602;11.904;2023-04-15T08:31:28;20.00;86.30
59572;DHT22;59406;45.602;11.904;2023-04-15T08:33:56;20.00;85.40
59572;DHT22;59406;45.602;11.904;2023-04-15T08:36:22;20.00;83.60
59572;DHT22;59406;45.602;11.904;2023-04-15T08:38:48;20.00;84.50
59572;DHT22;59406;45.602;11.904;2023-04-15T08:41:24;20.00;83.70
59572;DHT22;59406;45.602;11.904;2023-04-15T08:44:00;20.00;84.10
59572;DHT22;59406;45.602;11.904;2023-04-15T08:46:30;20.00;79.80
59572;DHT22;59406;45.602;11.904;2023-04-15T08:48:57;19.90;80.80
59572;DHT22;59406;45.602;11.904;2023-04-15T08:51:23;19.90;80.40
59572;DHT22;59406;45.602;11.904;2023-04-15T08:53:49;19.90;80.50
59572;DHT22;59406;45.602;11.904;2023-04-15T08:56:15;19.90;82.00
59572;DHT22;59406;45.602;11.904;2023-04-15T08:58:43;20.00;81.40
59572;DHT22;59406;45.602;11.904;2023-04-15T09:01:11;19.90;82.10
59572;DHT22;59406;45.602;11.904;2023-04-15T09:03:38;19.90;80.70
59572;DHT22;59406;45.602;11.904;2023-04-15T09:06:05;19.80;80.60
59572;DHT22;59406;45.602;11.904;2023-04-15T09:08:31;20.00;80.50
59572;DHT22;59406;45.602;11.904;2023-04-15T09:10:59;19.90;80.50
59572;DHT22;59406;45.602;11.904;2023-04-15T09:13:25;19.90;82.90
59572;DHT22;59406;45.602;11.904;2023-04-15T09:15:52;20.00;82.80
59572;DHT22;59406;45.602;11.904;2023-04-15T09:18:32;19.90;80.80
59572;DHT22;59406;45.602;11.904;2023-04-15T09:23:34;20.00;82.00
59572;DHT22;59406;45.602;11.904;2023-04-15T09:26:01;19.90;80.80
59572;DHT22;59406;45.602;11.904;2023-04-15T09:28:27;19.90;81.10
59572;DHT22;59406;45.602;11.904;2023-04-15T09:31:00;19.90;81.00
59572;DHT22;59406;45.602;11.904;2023-04-15T09:33:27;20.00;79.90
59572;DHT22;59406;45.602;11.904;2023-04-15T09:36:02;20.00;80.30
59572;DHT22;59406;45.602;11.904;2023-04-15T09:38:29;20.00;79.70
59572;DHT22;59406;45.602;11.904;2023-04-15T09:40:56;20.00;79.70
59572;DHT22;59406;45.602;11.904;2023-04-15T09:43:35;19.90;80.40
59572;DHT22;59406;45.602;11.904;2023-04-15T09:46:02;20.00;83.20
59572;DHT22;59406;45.602;11.904;2023-04-15T09:48:28;20.10;84.10
59572;DHT22;59406;45.602;11.904;2023-04-15T09:50:59;20.00;83.30
59572;DHT22;59406;45.602;11.904;2023-04-15T09:53:26;20.00;80.60
59572;DHT22;59406;45.602;11.904;2023-04-15T09:55:58;20.00;80.40
59572;DHT22;59406;45.602;11.904;2023-04-15T09:58:30;20.00;80.30
59572;DHT22;59406;45.602;11.904;2023-04-15T10:00:58;20.00;80.00
59572;DHT22;59406;45.602;11.904;2023-04-15T10:03:28;20.00;79.60
59572;DHT22;59406;45.602;11.904;2023-04-15T10:05:57;19.90;81.50
59572;DHT22;59406;45.602;11.904;2023-04-15T10:08:27;20.00;82.40
59572;DHT22;59406;45.602;11.904;2023-04-15T10:10:54;20.00;80.10
59572;DHT22;59406;45.602;11.904;2023-04-15T10:13:25;20.00;80.00
59572;DHT22;59406;45.602;11.904;2023-04-15T10:16:08;20.00;79.10
59572;DHT22;59406;45.602;11.904;2023-04-15T10:18:39;20.00;78.60
59572;DHT22;59406;45.602;11.904;2023-04-15T10:21:06;20.00;80.30
59572;DHT22;59406;45.602;11.904;2023-04-15T10:23:33;20.00;81.20
59572;DHT22;59406;45.602;11.904;2023-04-15T10:25:59;20.10;83.20
59572;DHT22;59406;45.602;11.904;2023-04-15T10:28:26;20.00;83.20
59572;DHT22;59406;45.602;11.904;2023-04-15T10:30:52;20.00;82.00
59572;DHT22;59406;45.602;11.904;2023-04-15T10:33:21;20.00;81.10
59572;DHT22;59406;45.602;11.904;2023-04-15T10:35:49;20.00;79.60
59572;DHT22;59406;45.602;11.904;2023-04-15T10:38:38;20.00;79.80
59572;DHT22;59406;45.602;11.904;2023-04-15T10:41:20;20.00;82.40
59572;DHT22;59406;45.602;11.904;2023-04-15T10:44:00;20.00;83.80
59572;DHT22;59406;45.602;11.904;2023-04-15T10:49:12;20.10;83.30
59572;DHT22;59406;45.602;11.904;2023-04-15T10:51:40;20.10;80.20
59572;DHT22;59406;45.602;11.904;2023-04-15T10:59:38;20.00;81.20
59572;DHT22;59406;45.602;11.904;2023-04-15T11:05:09;20.10;79.20
59572;DHT22;59406;45.602;11.904;2023-04-15T11:07:53;20.10;81.80
59572;DHT22;59406;45.602;11.904;2023-04-15T11:12:47;20.10;83.30
59572;DHT22;59406;45.602;11.904;2023-04-15T11:15:38;20.10;81.80
59572;DHT22;59406;45.602;11.904;2023-04-15T11:18:15;20.10;87.30
59572;DHT22;59406;45.602;11.904;2023-04-15T11:20:46;20.20;81.00
59572;DHT22;59406;45.602;11.904;2023-04-15T11:23:14;20.20;81.20
59572;DHT22;59406;45.602;11.904;2023-04-15T11:25:40;20.10;80.40
59572;DHT22;59406;45.602;11.904;2023-04-15T11:28:07;20.10;80.80
59572;DHT22;59406;45.602;11.904;2023-04-15T11:30:35;20.10;80.50
59572;DHT22;59406;45.602;11.904;2023-04-15T11:33:04;20.10;80.60
59572;DHT22;59406;45.602;11.904;2023-04-15T11:35:30;20.10;80.30
59572;DHT22;59406;45.602;11.904;2023-04-15T11:37:57;20.10;80.10
59572;DHT22;59406;45.602;11.904;2023-04-15T11:40:28;20.00;80.30
59572;DHT22;59406;45.602;11.904;2023-04-15T11:45:30;20.20;79.50
59572;DHT22;59406;45.602;11.904;2023-04-15T11:48:16;20.10;81.90
59572;DHT22;59406;45.602;11.904;2023-04-15T11:50:43;20.20;80.30
59572;DHT22;59406;45.602;11.904;2023-04-15T11:53:10;20.10;82.70
59572;DHT22;59406;45.602;11.904;2023-04-15T11:55:44;20.20;82.30
59572;DHT22;59406;45.602;11.904;2023-04-15T11:58:24;20.10;80.10
59572;DHT22;59406;45.602;11.904;2023-04-15T12:00:52;20.20;82.70
59572;DHT22;59406;45.602;11.904;2023-04-15T12:03:29;20.10;80.70
59572;DHT22;59406;45.602;11.904;2023-04-15T12:14:11;20.20;79.70
59572;DHT22;59406;45.602;11.904;2023-04-15T12:19:10;20.20;81.00
59572;DHT22;59406;45.602;11.904;2023-04-15T12:21:39;20.20;79.70
59572;DHT22;59406;45.602;11.904;2023-04-15T12:24:09;20.20;80.50
59572;DHT22;59406;45.602;11.904;2023-04-15T12:26:55;20.20;79.20
59572;DHT22;59406;45.602;11.904;2023-04-15T12:29:27;20.20;78.00
59572;DHT22;59406;45.602;11.904;2023-04-15T12:31:55;20.20;79.10
59572;DHT22;59406;45.602;11.904;2023-04-15T12:34:51;20.00;80.10
59572;DHT22;59406;45.602;11.904;2023-04-15T12:37:17;20.10;80.20
59572;DHT22;59406;45.602;11.904;2023-04-15T12:39:45;20.10;79.30
59572;DHT22;59406;45.602;11.904;2023-04-15T12:42:14;20.20;80.40
59572;DHT22;59406;45.602;11.904;2023-04-15T12:44:40;20.10;82.30
59572;DHT22;59406;45.602;11.904;2023-04-15T12:47:08;20.20;82.90
59572;DHT22;59406;45.602;11.904;2023-04-15T12:49:34;20.20;83.60
59572;DHT22;59406;45.602;11.904;2023-04-15T12:52:01;20.20;81.50
59572;DHT22;59406;45.602;11.904;2023-04-15T12:54:28;20.10;80.00
59572;DHT22;59406;45.602;11.904;2023-04-15T12:56:54;20.20;80.30
59572;DHT22;59406;45.602;11.904;2023-04-15T12:59:20;20.20;79.60
59572;DHT22;59406;45.602;11.904;2023-04-15T13:01:49;20.20;79.20
59572;DHT22;59406;45.602;11.904;2023-04-15T13:04:15;20.10;78.80
59572;DHT22;59406;45.602;11.904;2023-04-15T13:06:42;20.10;79.50
59572;DHT22;59406;45.602;11.904;2023-04-15T13:09:08;20.10;79.60
59572;DHT22;59406;45.602;11.904;2023-04-15T13:11:34;20.20;81.30
59572;DHT22;59406;45.602;11.904;2023-04-15T13:14:02;20.20;80.30
59572;DHT22;59406;45.602;11.904;2023-04-15T13:16:28;20.10;79.70
59572;DHT22;59406;45.602;11.904;2023-04-15T13:18:54;20.10;79.20
59572;DHT22;59406;45.602;11.904;2023-04-15T13:21:20;20.20;79.90
59572;DHT22;59406;45.602;11.904;2023-04-15T13:23:48;20.20;79.20
59572;DHT22;59406;45.602;11.904;2023-04-15T13:26:14;20.20;79.30
59572;DHT22;59406;45.602;11.904;2023-04-15T13:28:40;20.10;79.20
59572;DHT22;59406;45.602;11.904;2023-04-15T13:31:06;20.10;78.40
59572;DHT22;59406;45.602;11.904;2023-04-15T13:33:32;20.10;78.80
59572;DHT22;59406;45.602;11.904;2023-04-15T13:35:58;20.10;79.70
59572;DHT22;59406;45.602;11.904;2023-04-15T13:38:25;20.20;82.00
59572;DHT22;59406;45.602;11.904;2023-04-15T13:40:51;20.10;81.40
59572;DHT22;59406;45.602;11.904;2023-04-15T13:43:17;20.20;80.00
59572;DHT22;59406;45.602;11.904;2023-04-15T13:45:46;20.20;79.30
59572;DHT22;59406;45.602;11.904;2023-04-15T13:48:12;20.20;79.70
59572;DHT22;59406;45.602;11.904;2023-04-15T13:50:37;20.10;79.80
59572;DHT22;59406;45.602;11.904;2023-04-15T13:53:03;20.20;81.60
59572;DHT22;59406;45.602;11.904;2023-04-15T13:55:30;20.20;82.30
59572;DHT22;59406;45.602;11.904;2023-04-15T13:57:55;20.20;82.20
59572;DHT22;59406;45.602;11.904;2023-04-15T14:00:21;20.30;82.80
59572;DHT22;59406;45.602;11.904;2023-04-15T14:02:47;20.30;82.80
59572;DHT22;59406;45.602;11.904;2023-04-15T14:05:13;20.30;83.10
59572;DHT22;59406;45.602;11.904;2023-04-15T14:07:39;20.30;81.50
59572;DHT22;59406;45.602;11.904;2023-04-15T14:10:06;20.20;82.50
59572;DHT22;59406;45.602;11.904;2023-04-15T14:12:32;20.30;83.00
59572;DHT22;59406;45.602;11.904;2023-04-15T14:14:58;20.20;82.50
59572;DHT22;59406;45.602;11.904;2023-04-15T14:17:24;20.30;82.30
59572;DHT22;59406;45.602;11.904;2023-04-15T14:19:50;20.30;82.80
59572;DHT22;59406;45.602;11.904;2023-04-15T14:22:15;20.30;83.90
59572;DHT22;59406;45.602;11.904;2023-04-15T14:24:44;20.30;83.70
59572;DHT22;59406;45.602;11.904;2023-04-15T14:27:10;20.30;83.60
59572;DHT22;59406;45.602;11.904;2023-04-15T14:29:37;20.40;84.00
59572;DHT22;59406;45.602;11.904;2023-04-15T14:32:03;20.30;83.30
59572;DHT22;59406;45.602;11.904;2023-04-15T14:34:29;20.40;81.90
59572;DHT22;59406;45.602;11.904;2023-04-15T14:36:55;20.40;81.50
59572;DHT22;59406;45.602;11.904;2023-04-15T14:39:21;20.30;80.90
59572;DHT22;59406;45.602;11.904;2023-04-15T14:41:47;20.30;80.70
59572;DHT22;59406;45.602;11.904;2023-04-15T14:44:14;20.30;81.10
59572;DHT22;59406;45.602;11.904;2023-04-15T14:46:40;20.30;82.60
59572;DHT22;59406;45.602;11.904;2023-04-15T14:49:07;20.40;83.50
59572;DHT22;59406;45.602;11.904;2023-04-15T14:51:33;20.40;83.60
59572;DHT22;59406;45.602;11.904;2023-04-15T14:53:58;20.40;84.10
59572;DHT22;59406;45.602;11.904;2023-04-15T14:56:25;20.50;84.20
59572;DHT22;59406;45.602;11.904;2023-04-15T14:58:51;20.40;84.40
59572;DHT22;59406;45.602;11.904;2023-04-15T15:01:19;20.40;84.40
59572;DHT22;59406;45.602;11.904;2023-04-15T15:03:46;20.40;84.50
59572;DHT22;59406;45.602;11.904;2023-04-15T15:06:12;20.40;82.80
59572;DHT22;59406;45.602;11.904;2023-04-15T15:08:38;20.40;83.30
59572;DHT22;59406;45.602;11.904;2023-04-15T15:11:04;20.40;82.60
59572;DHT22;59406;45.602;11.904;2023-04-15T15:13:30;20.40;80.60
59572;DHT22;59406;45.602;11.904;2023-04-15T15:15:56;20.30;81.60
59572;DHT22;59406;45.602;11.904;2023-04-15T15:18:22;20.40;81.90
59572;DHT22;59406;45.602;11.904;2023-04-15T15:20:50;20.30;80.50
59572;DHT22;59406;45.602;11.904;2023-04-15T15:23:16;20.30;79.30
59572;DHT22;59406;45.602;11.904;2023-04-15T15:25:43;20.30;78.60
59572;DHT22;59406;45.602;11.904;2023-04-15T15:28:09;20.20;78.30
59572;DHT22;59406;45.602;11.904;2023-04-15T15:30:35;20.30;78.40
59572;DHT22;59406;45.602;11.904;2023-04-15T15:33:01;20.30;78.20
59572;DHT22;59406;45.602;11.904;2023-04-15T15:35:27;20.20;77.70
59572;DHT22;59406;45.602;11.904;2023-04-15T15:37:53;20.20;77.60
59572;DHT22;59406;45.602;11.904;2023-04-15T15:40:19;20.20;77.40
59572;DHT22;59406;45.602;11.904;2023-04-15T15:42:45;20.20;77.20
59572;DHT22;59406;45.602;11.904;2023-04-15T15:45:14;20.20;77.10
59572;DHT22;59406;45.602;11.904;2023-04-15T15:47:40;20.20;77.20